METAR Data
IDs: Format: Raw Decoded Include TAF

Data at: 1154 UTC 23 Sep 2018

KMAE 231053Z AUTO 36003KT 10SM CLR 17/09 A2984 RMK AO2 SLP102 T01720094
KMAE 230953Z AUTO 32005KT 10SM CLR 18/09 A2985 RMK AO2 SLP104 T01830094
KMAE 230853Z AUTO 29004KT 10SM CLR 17/09 A2985 RMK AO2 SLP106 T01670094 50001
KMAE 230753Z AUTO 26003KT 10SM CLR 18/09 A2986 RMK AO2 SLP109 T01780089 403720128
KMAE 230653Z AUTO 31005KT 10SM CLR 21/08 A2985 RMK AO2 SLP105 T02110083
KMAE 230553Z AUTO 31006KT 10SM CLR 23/09 A2985 RMK AO2 SLP105 T02330089 10367 20217 50008
KMAE 230453Z AUTO 30005KT 10SM CLR 23/08 A2985 RMK AO2 SLP106 T02330083
KMAE 230353Z AUTO 33006KT 10SM CLR 26/09 A2984 RMK AO2 SLP102 T02560094
KMAE 230253Z AUTO 31006KT 10SM CLR 28/09 A2983 RMK AO2 SLP098 T02830094 55004
KMAE 230153Z AUTO 31005KT 10SM CLR 31/08 A2982 RMK AO2 SLP096 T03110083
KMAE 230053Z AUTO 34008KT 10SM CLR 36/06 A2983 RMK AO2 SLP098 T03610061
KMAE 222353Z AUTO VRB03KT 10SM CLR 37/04 A2984 RMK AO2 SLP102 T03670044 10372 20283 56020
KMAE 222253Z AUTO 27005KT 10SM CLR 37/05 A2986 RMK AO2 SLP108 T03670050
KMAE 222153Z AUTO VRB03KT 10SM CLR 36/07 A2987 RMK AO2 SLP112 T03610067
KMAE 222053Z AUTO VRB04KT 9SM CLR 34/08 A2990 RMK AO2 SLP123 T03390083 58021
KMAE 221953Z AUTO VRB05KT 10SM CLR 33/08 A2993 RMK AO2 SLP132 T03330083
KMAE 221853Z AUTO 19006KT 10SM CLR 31/07 A2995 RMK AO2 SLP140 T03110072
KMAE 221753Z AUTO 17004KT 10SM CLR 28/07 A2996 RMK AO2 SLP144 T02830072 10283 20128 50001
KMAE 221653Z AUTO 00000KT 10SM CLR 24/08 A2997 RMK AO2 SLP146 T02440083
KMAE 221553Z AUTO 24003KT 10SM CLR 21/08 A2996 RMK AO2 SLP144 T02060083
KMAE 221453Z AUTO 00000KT 6SM HZ CLR 17/09 A2996 RMK AO2 SLP143 T01670089 53009
KMAE 221445Z AUTO 00000KT 3SM HZ CLR 16/08 A2996 RMK AO2 T01610083
KMAE 221431Z AUTO 00000KT 2SM HZ CLR 15/08 A2995 RMK AO2 T01500083
KMAE 221353Z AUTO 00000KT 10SM CLR 13/08 A2995 RMK AO2 SLP138 T01330078
KMAE 221253Z AUTO 00000KT 10SM CLR 14/08 A2994 RMK AO2 SLP135 T01390078
KMAE 221153Z AUTO 00000KT 10SM CLR 14/07 A2993 RMK AO2 SLP134 T01440072 10200 20144 55002
KMAE 221053Z AUTO 29004KT 8SM CLR 14/08 A2993 RMK AO2 SLP133 T01440083
KMAE 220953Z AUTO 36003KT 10SM CLR 18/09 A2993 RMK AO2 SLP132 T01830089
KMAE 220853Z AUTO 35003KT 10SM CLR 17/09 A2994 RMK AO2 SLP134 T01720094 51001
KMAE 220753Z AUTO 29003KT 10SM CLR 18/09 A2994 RMK AO2 SLP135 T01780094 403610139
KMAE 220653Z AUTO 24003KT 10SM CLR 19/09 A2994 RMK AO2 SLP136 T01940094
KMAE 220553Z AUTO 27005KT 10SM CLR 19/08 A2994 RMK AO2 SLP135 T01940083 10361 20194 51014
KMAE 220453Z AUTO 36006KT 10SM CLR 24/07 A2992 RMK AO2 SLP130 T02390072
KMAE 220353Z AUTO 32005KT 10SM CLR 26/08 A2992 RMK AO2 SLP128 T02560083
KMAE 220253Z AUTO 30005KT 10SM CLR 26/06 A2990 RMK AO2 SLP121 T02560061 53006
KMAE 220153Z AUTO 30005KT 10SM CLR 30/07 A2989 RMK AO2 SLP118 T03000072
KMAE 220053Z AUTO 29005KT 10SM CLR 35/05 A2987 RMK AO2 SLP113 T03500050